createdAt,value
2022-11-24T00:01:51.473Z,100373.60
2022-11-24T00:04:21.188Z,100371.60
2022-11-24T00:06:50.974Z,100368.80
2022-11-24T00:09:21.185Z,100368.00
2022-11-24T00:11:50.913Z,100367.40
2022-11-24T00:14:20.947Z,100366.40
2022-11-24T00:16:50.567Z,100363.20
2022-11-24T00:19:20.326Z,100366.20
2022-11-24T00:21:50.191Z,100366.60
2022-11-24T00:24:20.093Z,100375.80
2022-11-24T00:26:49.569Z,100377.60
2022-11-24T00:29:19.586Z,100375.60
2022-11-24T00:31:49.397Z,100377.00
2022-11-24T00:34:18.871Z,100374.60
2022-11-24T00:36:48.210Z,100373.20
2022-11-24T00:39:18.633Z,100374.40
2022-11-24T00:41:48.140Z,100379.60
2022-11-24T00:44:17.852Z,100378.60
2022-11-24T00:46:48.035Z,100380.60
2022-11-24T00:49:17.987Z,100381.20
2022-11-24T00:51:47.654Z,100387.00
2022-11-24T00:54:16.971Z,100393.20
2022-11-24T00:56:46.932Z,100394.80
2022-11-24T00:59:16.628Z,100401.80
2022-11-24T01:01:46.781Z,100398.20
2022-11-24T01:04:15.964Z,100397.20
2022-11-24T01:06:45.575Z,100401.80
2022-11-24T01:09:15.080Z,100400.40
2022-11-24T01:12:03.143Z,100398.40
2022-11-24T01:14:34.004Z,100397.40
2022-11-24T01:17:04.108Z,100398.80
2022-11-24T01:19:33.707Z,100400.80
2022-11-24T01:22:03.277Z,100397.40
2022-11-24T01:24:32.685Z,100397.20
2022-11-24T01:27:02.494Z,100395.60
2022-11-24T01:29:32.107Z,100399.40
2022-11-24T01:32:01.834Z,100400.00
2022-11-24T01:34:31.552Z,100399.20
2022-11-24T01:37:01.438Z,100399.40
2022-11-24T01:39:31.050Z,100399.20
2022-11-24T01:42:03.442Z,100400.40
2022-11-24T01:44:33.319Z,100397.20
2022-11-24T01:47:35.307Z,100393.60
2022-11-24T01:50:06.826Z,100391.00
2022-11-24T01:52:48.037Z,100391.40
2022-11-24T01:55:23.600Z,100391.00
2022-11-24T01:57:58.005Z,100394.80
2022-11-24T02:00:28.260Z,100398.80
2022-11-24T02:02:59.880Z,100401.00
2022-11-24T02:05:43.215Z,100391.00
2022-11-24T02:08:25.965Z,100392.40
2022-11-24T02:10:55.533Z,100391.80
2022-11-24T02:13:25.905Z,100383.80
2022-11-24T02:15:55.781Z,100382.80
2022-11-24T02:18:25.392Z,100379.60
2022-11-24T02:20:54.813Z,100374.60
2022-11-24T02:23:52.457Z,100371.40
2022-11-24T02:26:42.136Z,100374.40
2022-11-24T02:29:13.599Z,100378.20
2022-11-24T02:31:47.617Z,100382.00
2022-11-24T02:34:17.105Z,100383.40
2022-11-24T02:36:46.819Z,100389.20
2022-11-24T02:39:17.136Z,100390.40
2022-11-24T02:41:59.756Z,100398.00
2022-11-24T02:44:35.622Z,100399.40
2022-11-24T02:47:12.269Z,100392.60
2022-11-24T02:49:41.731Z,100386.80
2022-11-24T02:52:11.298Z,100389.40
2022-11-24T02:54:40.802Z,100386.60
2022-11-24T02:57:11.650Z,100385.00
2022-11-24T02:59:41.044Z,100383.60
2022-11-24T03:02:11.370Z,100385.40
2022-11-24T03:04:40.875Z,100385.60
2022-11-24T03:07:10.570Z,100383.80
2022-11-24T03:09:39.989Z,100382.00
2022-11-24T03:12:09.507Z,100383.20
2022-11-24T03:14:38.605Z,100391.00
2022-11-24T03:17:07.892Z,100395.40
2022-11-24T03:19:37.500Z,100393.80
2022-11-24T03:22:07.007Z,100393.20
2022-11-24T03:24:36.548Z,100394.00
2022-11-24T03:27:06.023Z,100393.40
2022-11-24T03:29:35.656Z,100405.60
2022-11-24T03:32:05.572Z,100406.60
2022-11-24T03:34:36.404Z,100410.20
2022-11-24T03:37:09.422Z,100414.80
2022-11-24T03:39:39.900Z,100415.60
2022-11-24T03:42:09.410Z,100415.20
2022-11-24T03:44:38.808Z,100415.00
2022-11-24T03:47:08.317Z,100414.60
2022-11-24T03:49:37.528Z,100410.60
2022-11-24T03:52:08.457Z,100410.00
2022-11-24T03:54:38.169Z,100408.40
2022-11-24T03:57:07.567Z,100414.60
2022-11-24T03:59:36.970Z,100411.40
2022-11-24T04:02:06.364Z,100410.80
2022-11-24T04:04:35.984Z,100414.20
2022-11-24T04:07:05.488Z,100415.40
2022-11-24T04:09:34.726Z,100422.20
2022-11-24T04:12:23.036Z,100422.80
2022-11-24T04:14:52.440Z,100427.20
2022-11-24T04:17:21.844Z,100434.60
2022-11-24T04:19:51.166Z,100431.60
2022-11-24T04:22:20.650Z,100436.00
2022-11-24T04:24:50.259Z,100438.80
2022-11-24T04:27:19.771Z,100437.20
2022-11-24T04:29:49.174Z,100435.80
2022-11-24T04:32:18.807Z,100439.00
2022-11-24T04:34:48.289Z,100452.00
2022-11-24T04:37:17.893Z,100469.00
2022-11-24T04:39:47.610Z,100472.80
2022-11-24T04:42:17.108Z,100473.20
2022-11-24T04:44:46.616Z,100470.80
2022-11-24T04:47:22.639Z,100475.60
2022-11-24T04:49:52.902Z,100474.00
2022-11-24T04:52:24.910Z,100478.60
2022-11-24T04:54:54.474Z,100485.80
2022-11-24T04:57:27.080Z,100481.60
2022-11-24T04:59:56.557Z,100480.00
2022-11-24T05:02:25.959Z,100485.40
2022-11-24T05:04:55.172Z,100487.00
2022-11-24T05:07:24.282Z,100487.80
2022-11-24T05:10:12.288Z,100484.60
2022-11-24T05:12:41.387Z,100477.00
2022-11-24T05:15:11.559Z,100483.20
2022-11-24T05:17:40.606Z,100485.20
2022-11-24T05:20:10.346Z,100487.60
2022-11-24T05:22:39.509Z,100484.60
2022-11-24T05:25:09.267Z,100486.00
2022-11-24T05:27:38.417Z,100483.60
2022-11-24T05:30:08.720Z,100484.20
2022-11-24T05:32:37.941Z,100485.40
2022-11-24T05:35:10.058Z,100485.80
2022-11-24T05:37:39.105Z,100488.00
2022-11-24T05:40:08.955Z,100496.60
2022-11-24T05:42:46.205Z,100499.40
2022-11-24T05:45:20.802Z,100492.60
2022-11-24T05:47:51.545Z,100498.80
2022-11-24T05:50:22.995Z,100498.00
2022-11-24T05:52:52.014Z,100501.00
2022-11-24T05:55:20.997Z,100507.60
2022-11-24T05:57:49.699Z,100510.60
2022-11-24T06:00:20.350Z,100517.40
2022-11-24T06:02:49.146Z,100518.60
2022-11-24T06:05:18.233Z,100520.40
2022-11-24T06:07:46.990Z,100516.00
2022-11-24T06:10:21.473Z,100518.20
2022-11-24T06:12:51.019Z,100520.60
2022-11-24T06:15:20.014Z,100519.00
2022-11-24T06:17:56.280Z,100530.20
2022-11-24T06:20:31.198Z,100538.40
2022-11-24T06:23:01.945Z,100546.80
2022-11-24T06:25:30.605Z,100548.40
2022-11-24T06:27:59.216Z,100546.40
2022-11-24T06:30:28.005Z,100545.20
2022-11-24T06:32:56.694Z,100544.80
2022-11-24T06:35:25.276Z,100548.00
2022-11-24T06:37:53.962Z,100562.00
2022-11-24T06:40:22.650Z,100564.40
2022-11-24T06:42:52.907Z,100568.40
2022-11-24T06:45:21.559Z,100567.60
2022-11-24T06:47:50.144Z,100569.00
2022-11-24T06:50:19.071Z,100564.20
2022-11-24T06:52:47.722Z,100561.60
2022-11-24T06:55:16.735Z,100560.60
2022-11-24T06:57:45.302Z,100567.00
2022-11-24T07:00:15.113Z,100578.00
2022-11-24T07:02:46.046Z,100577.00
2022-11-24T07:05:15.281Z,100592.60
2022-11-24T07:07:44.507Z,100594.20
2022-11-24T07:10:13.139Z,100594.00
2022-11-24T07:12:41.623Z,100599.00
2022-11-24T07:15:11.453Z,100600.00
2022-11-24T07:17:41.432Z,100604.20
2022-11-24T07:20:10.645Z,100607.40
2022-11-24T07:22:39.132Z,100609.60
2022-11-24T07:25:10.010Z,100606.60
2022-11-24T07:27:38.655Z,100605.00
2022-11-24T07:30:09.441Z,100602.40
2022-11-24T07:32:38.079Z,100612.40
2022-11-24T07:35:07.481Z,100608.80
2022-11-24T07:37:36.068Z,100610.40
2022-11-24T07:40:05.652Z,100617.40
2022-11-24T07:42:34.363Z,100624.60
2022-11-24T07:45:03.151Z,100635.20
2022-11-24T07:47:31.736Z,100642.60
2022-11-24T07:50:00.421Z,100648.40
2022-11-24T07:52:29.008Z,100645.40
2022-11-24T07:54:57.591Z,100646.00
2022-11-24T07:57:26.280Z,100650.60
2022-11-24T07:59:56.431Z,100649.80
2022-11-24T08:02:24.984Z,100655.20
2022-11-24T08:04:53.668Z,100657.20
2022-11-24T08:07:22.427Z,100655.00
2022-11-24T08:09:52.425Z,100651.80
2022-11-24T08:12:23.722Z,100649.20
2022-11-24T08:14:52.413Z,100647.80
2022-11-24T08:17:21.096Z,100648.20
2022-11-24T08:19:49.801Z,100649.40
2022-11-24T08:22:18.573Z,100647.00
2022-11-24T08:24:49.000Z,100652.20
2022-11-24T08:27:18.813Z,100648.60
2022-11-24T08:29:47.294Z,100649.80
2022-11-24T08:32:22.041Z,100656.80
2022-11-24T08:34:52.221Z,100655.60
2022-11-24T08:37:26.668Z,100655.00
2022-11-24T08:39:55.253Z,100656.60
2022-11-24T08:42:23.939Z,100654.00
2022-11-24T08:44:58.850Z,100653.00
2022-11-24T08:47:28.072Z,100655.60
2022-11-24T08:49:56.758Z,100653.60
2022-11-24T08:52:25.342Z,100660.40
2022-11-24T08:54:54.540Z,100660.20
2022-11-24T08:57:23.346Z,100662.60
2022-11-24T08:59:52.120Z,100662.00
2022-11-24T09:02:20.808Z,100662.00
2022-11-24T09:04:49.535Z,100662.40
2022-11-24T09:07:18.412Z,100663.80
2022-11-24T09:09:47.072Z,100665.80
2022-11-24T09:12:15.760Z,100664.80
2022-11-24T09:14:44.342Z,100664.20
2022-11-24T09:17:13.480Z,100669.80
2022-11-24T09:22:28.324Z,100663.80
2022-11-24T09:24:57.306Z,100666.00
2022-11-24T09:27:25.808Z,100670.60
2022-11-24T09:29:54.384Z,100678.40
2022-11-24T09:32:23.070Z,100676.20
2022-11-24T09:34:52.068Z,100679.40
2022-11-24T09:37:20.649Z,100681.40
2022-11-24T09:39:49.335Z,100683.00
2022-11-24T09:42:27.136Z,100688.80
2022-11-24T09:45:22.850Z,100688.00
2022-11-24T09:48:19.811Z,100687.00
2022-11-24T09:50:50.656Z,100688.80
2022-11-24T09:53:47.389Z,100682.60
2022-11-24T09:56:32.664Z,100683.40
2022-11-24T09:59:16.834Z,100687.20
2022-11-24T10:01:47.993Z,100690.20
2022-11-24T10:04:31.273Z,100689.80
2022-11-24T10:07:38.320Z,100685.80
2022-11-24T10:10:44.810Z,100689.00
2022-11-24T10:13:16.199Z,100687.20
2022-11-24T10:16:19.239Z,100692.80
2022-11-24T10:19:03.857Z,100693.00
2022-11-24T10:21:32.486Z,100695.60
2022-11-24T10:24:29.282Z,100702.00
2022-11-24T10:27:11.084Z,100697.40
2022-11-24T10:29:42.486Z,100696.80
2022-11-24T10:32:49.310Z,100692.00
2022-11-24T10:35:46.100Z,100694.80
2022-11-24T10:39:03.281Z,100687.20
2022-11-24T10:42:07.301Z,100681.40
2022-11-24T10:44:35.885Z,100680.00
2022-11-24T10:47:04.669Z,100679.60
2022-11-24T10:49:34.050Z,100676.20
2022-11-24T10:52:15.455Z,100679.20
2022-11-24T10:55:00.327Z,100673.40
2022-11-24T10:57:39.063Z,100672.00
2022-11-24T11:00:19.937Z,100668.40
2022-11-24T11:02:50.741Z,100676.20
2022-11-24T11:05:42.389Z,100685.00
2022-11-24T11:08:24.688Z,100679.00
2022-11-24T11:11:30.620Z,100680.20
2022-11-24T11:14:04.611Z,100683.20
2022-11-24T11:16:52.596Z,100684.00
2022-11-24T11:19:53.259Z,100686.40
2022-11-24T11:22:30.932Z,100691.20
2022-11-24T11:25:11.908Z,100690.60
2022-11-24T11:27:42.341Z,100693.80
2022-11-24T11:36:17.410Z,100698.40
2022-11-24T11:38:48.354Z,100703.40
2022-11-24T11:41:30.965Z,100698.00
2022-11-24T11:44:41.532Z,100699.80
2022-11-24T11:47:32.030Z,100706.40
2022-11-24T11:50:00.623Z,100711.80
2022-11-24T11:52:56.950Z,100713.60
2022-11-24T11:55:50.049Z,100714.20
2022-11-24T11:58:52.384Z,100716.60
2022-11-24T12:01:49.335Z,100720.60
2022-11-24T12:04:47.731Z,100728.20
2022-11-24T12:07:45.665Z,100731.60
2022-11-24T12:10:48.580Z,100729.80
2022-11-24T12:14:02.434Z,100726.60
2022-11-24T12:16:57.124Z,100730.00
2022-11-24T12:20:23.648Z,100736.00
2022-11-24T12:23:27.686Z,100728.60
2022-11-24T12:26:28.324Z,100725.60
2022-11-24T12:29:23.628Z,100724.80
2022-11-24T12:32:26.007Z,100724.00
2022-11-24T12:35:18.250Z,100726.00
2022-11-24T12:38:43.566Z,100728.00
2022-11-24T12:41:53.925Z,100721.00
2022-11-24T12:44:38.483Z,100725.20
2022-11-24T12:47:38.916Z,100719.60
2022-11-24T12:50:14.334Z,100722.60
2022-11-24T12:53:01.112Z,100725.80
2022-11-24T12:55:33.968Z,100722.80
2022-11-24T12:58:39.403Z,100722.80
2022-11-24T13:01:18.813Z,100724.20
2022-11-24T13:04:12.519Z,100735.80
2022-11-24T13:06:57.692Z,100743.60
2022-11-24T13:09:26.274Z,100745.00
2022-11-24T13:12:11.139Z,100746.80
2022-11-24T13:14:43.937Z,100753.00
2022-11-24T13:17:50.291Z,100752.60
2022-11-24T13:20:40.488Z,100757.80
2022-11-24T13:23:25.617Z,100754.20
2022-11-24T13:26:24.246Z,100752.80
2022-11-24T13:29:09.314Z,100756.60
2022-11-24T13:31:50.868Z,100762.60
2022-11-24T13:34:46.040Z,100763.20
2022-11-24T13:37:31.808Z,100758.40
2022-11-24T13:40:13.664Z,100754.40
2022-11-24T13:42:57.980Z,100759.20
2022-11-24T13:45:39.258Z,100763.00
2022-11-24T13:48:20.686Z,100765.40
2022-11-24T13:50:54.326Z,100768.20
2022-11-24T13:53:41.242Z,100777.80
2022-11-24T13:56:12.697Z,100783.40
2022-11-24T13:59:27.612Z,100787.20
2022-11-24T14:01:59.268Z,100784.40
2022-11-24T14:04:31.028Z,100791.60
2022-11-24T14:07:09.231Z,100797.00
2022-11-24T14:09:50.052Z,100800.60
2022-11-24T14:12:25.381Z,100801.00
2022-11-24T14:14:57.768Z,100806.00
2022-11-24T14:17:28.856Z,100806.60
2022-11-24T14:19:58.932Z,100805.40
2022-11-24T14:22:41.765Z,100806.00
2022-11-24T14:25:32.230Z,100808.80
2022-11-24T14:28:00.984Z,100802.00
2022-11-24T14:30:29.764Z,100801.00
2022-11-24T14:33:01.784Z,100800.00
2022-11-24T14:35:33.651Z,100810.40
2022-11-24T14:38:05.587Z,100810.60
2022-11-24T14:40:55.813Z,100808.60
2022-11-24T14:43:32.998Z,100804.40
2022-11-24T14:46:12.468Z,100810.00
2022-11-24T14:48:53.411Z,100812.00
2022-11-24T14:51:30.713Z,100820.80
2022-11-24T14:54:03.466Z,100827.80
2022-11-24T14:56:40.368Z,100825.60
2022-11-24T14:59:24.406Z,100828.20
2022-11-24T15:01:53.132Z,100826.80
2022-11-24T15:05:01.008Z,100829.40
2022-11-24T15:07:24.302Z,100831.80
2022-11-24T15:10:02.107Z,100829.80
2022-11-24T15:12:34.636Z,100844.00
2022-11-24T15:15:15.417Z,100842.20
2022-11-24T15:17:57.305Z,100844.60
2022-11-24T15:20:30.602Z,100844.80
2022-11-24T15:23:26.865Z,100844.80
2022-11-24T15:25:56.846Z,100846.00
2022-11-24T15:28:28.623Z,100850.80
2022-11-24T15:31:04.240Z,100853.20
2022-11-24T15:33:33.564Z,100858.60
2022-11-24T15:36:02.765Z,100865.80
2022-11-24T15:38:31.339Z,100863.40
2022-11-24T15:41:02.060Z,100865.80
2022-11-24T15:43:40.494Z,100870.80
2022-11-24T15:46:10.076Z,100873.20
2022-11-24T15:48:38.971Z,100874.80
2022-11-24T15:51:13.986Z,100885.20
2022-11-24T15:53:54.507Z,100883.00
2022-11-24T15:56:34.242Z,100888.80
2022-11-24T15:59:04.288Z,100888.40
2022-11-24T16:01:34.448Z,100887.60
2022-11-24T16:04:03.535Z,100888.00
2022-11-24T16:06:32.259Z,100892.80
2022-11-24T16:09:01.077Z,100895.40
2022-11-24T16:11:29.736Z,100898.00
2022-11-24T16:13:58.479Z,100896.80
2022-11-24T16:16:27.313Z,100904.80
2022-11-24T16:18:56.111Z,100902.20
2022-11-24T16:21:24.789Z,100903.20
2022-11-24T16:23:54.436Z,100905.20
2022-11-24T16:26:23.098Z,100908.40
2022-11-24T16:28:52.087Z,100908.20
2022-11-24T16:31:20.925Z,100908.00
2022-11-24T16:33:50.076Z,100912.20
2022-11-24T16:36:18.863Z,100916.20
2022-11-24T16:38:47.752Z,100907.80
2022-11-24T16:41:16.850Z,100914.00
2022-11-24T16:43:46.669Z,100917.00
2022-11-24T16:46:22.745Z,100917.20
2022-11-24T16:48:56.075Z,100919.00
2022-11-24T16:51:29.985Z,100924.60
2022-11-24T16:54:03.974Z,100921.20
2022-11-24T16:56:33.216Z,100930.40
2022-11-24T16:59:02.265Z,100934.80
2022-11-24T17:01:33.282Z,100930.20
2022-11-24T17:04:02.370Z,100928.20
2022-11-24T17:06:34.010Z,100926.40
2022-11-24T17:09:02.846Z,100928.60
2022-11-24T17:11:31.946Z,100928.00
2022-11-24T17:14:01.277Z,100934.20
2022-11-24T17:16:30.141Z,100931.20
2022-11-24T17:19:00.095Z,100927.60
2022-11-24T17:21:29.422Z,100930.20
2022-11-24T17:24:02.978Z,100931.40
2022-11-24T17:26:33.045Z,100935.40
2022-11-24T17:29:02.056Z,100928.60
2022-11-24T17:31:35.896Z,100934.80
2022-11-24T17:34:08.071Z,100938.60
2022-11-24T17:36:36.801Z,100947.20
2022-11-24T17:39:09.991Z,100939.80
2022-11-24T17:41:38.784Z,100947.80
2022-11-24T17:44:08.937Z,100955.80
2022-11-24T17:46:37.894Z,100946.40
2022-11-24T17:49:13.370Z,100951.00
2022-11-24T17:51:42.132Z,100951.20
2022-11-24T17:54:39.112Z,100952.00
2022-11-24T17:56:59.573Z,100946.80
2022-11-24T17:59:28.366Z,100952.40
2022-11-24T18:01:57.607Z,100952.20
2022-11-24T18:04:26.362Z,100954.60
2022-11-24T18:06:55.040Z,100955.40
2022-11-24T18:09:23.830Z,100951.60
2022-11-24T18:11:53.128Z,100956.00
2022-11-24T18:14:21.816Z,100956.60
2022-11-24T18:16:50.665Z,100961.40
2022-11-24T18:19:19.394Z,100958.60
2022-11-24T18:21:48.196Z,100962.60
2022-11-24T18:24:21.153Z,100963.00
2022-11-24T18:26:52.828Z,100965.80
2022-11-24T18:29:22.141Z,100967.40
2022-11-24T18:31:50.878Z,100964.40
2022-11-24T18:34:19.812Z,100965.60
2022-11-24T18:36:52.286Z,100968.40
2022-11-24T18:39:21.217Z,100965.60
2022-11-24T18:41:50.380Z,100966.20
2022-11-24T18:44:19.163Z,100962.00
2022-11-24T18:46:49.796Z,100970.00
2022-11-24T18:49:18.528Z,100964.20
2022-11-24T18:51:47.283Z,100971.40
2022-11-24T18:54:16.065Z,100976.40
2022-11-24T18:56:45.163Z,100976.60
2022-11-24T18:59:13.744Z,100971.60
2022-11-24T19:01:42.613Z,100971.60
2022-11-24T19:04:13.093Z,100982.00
2022-11-24T19:06:41.960Z,100976.80
2022-11-24T19:09:18.572Z,100974.60
2022-11-24T19:11:47.987Z,100977.60
2022-11-24T19:14:19.278Z,100982.40
2022-11-24T19:16:48.596Z,100981.20
2022-11-24T19:19:17.684Z,100977.80
2022-11-24T19:21:46.674Z,100979.60
2022-11-24T19:24:15.668Z,100975.60
2022-11-24T19:26:44.582Z,100983.20
2022-11-24T19:29:13.572Z,100978.40
2022-11-24T19:31:44.257Z,100981.00
2022-11-24T19:34:13.344Z,100993.40
2022-11-24T19:36:43.500Z,100993.40
2022-11-24T19:39:16.115Z,100994.40
2022-11-24T19:41:45.585Z,100997.20
2022-11-24T19:44:14.579Z,100991.20
2022-11-24T19:46:43.371Z,101002.60
2022-11-24T19:49:12.616Z,100996.80
2022-11-24T19:51:41.460Z,100997.60
2022-11-24T19:54:15.174Z,101001.20
2022-11-24T19:56:44.259Z,101001.80
2022-11-24T19:59:15.057Z,101007.60
2022-11-24T20:01:44.222Z,101007.20
2022-11-24T20:04:15.715Z,101020.00
2022-11-24T20:06:47.807Z,101020.40
2022-11-24T20:09:18.637Z,101023.40
2022-11-24T20:11:48.962Z,101024.40
2022-11-24T20:14:19.588Z,101024.80
2022-11-24T20:16:49.069Z,101019.40
2022-11-24T20:19:18.975Z,101025.60
2022-11-24T20:21:49.973Z,101021.60
2022-11-24T20:24:23.495Z,101030.00
2022-11-24T20:26:58.472Z,101026.40
2022-11-24T20:29:29.400Z,101029.80
2022-11-24T20:31:58.895Z,101026.80
2022-11-24T20:34:28.616Z,101027.80
2022-11-24T20:36:57.554Z,101032.40
2022-11-24T20:39:28.058Z,101034.40
2022-11-24T20:41:57.191Z,101031.80
2022-11-24T20:44:27.812Z,101039.80
2022-11-24T20:47:00.591Z,101040.60
2022-11-24T20:49:29.338Z,101044.80
2022-11-24T20:51:58.175Z,101046.20
2022-11-24T20:54:27.066Z,101049.00
2022-11-24T20:56:56.059Z,101041.00
2022-11-24T20:59:26.087Z,101046.20
2022-11-24T21:01:59.351Z,101050.20
2022-11-24T21:04:28.275Z,101043.20
2022-11-24T21:06:57.155Z,101043.80
2022-11-24T21:09:27.482Z,101044.20
2022-11-24T21:11:56.181Z,101047.80
2022-11-24T21:14:25.264Z,101050.60
2022-11-24T21:16:53.926Z,101045.80
2022-11-24T21:19:22.842Z,101049.20
2022-11-24T21:21:51.631Z,101040.20
2022-11-24T21:24:22.040Z,101048.00
2022-11-24T21:26:53.053Z,101055.00
2022-11-24T21:29:23.774Z,101064.20
2022-11-24T21:31:52.782Z,101064.20
2022-11-24T21:34:21.659Z,101066.00
2022-11-24T21:36:50.323Z,101075.80
2022-11-24T21:39:19.280Z,101075.80
2022-11-24T21:41:48.506Z,101077.40
2022-11-24T21:44:17.495Z,101084.20
2022-11-24T21:46:52.739Z,101082.80
2022-11-24T21:49:24.815Z,101082.60
2022-11-24T21:51:56.258Z,101088.60
2022-11-24T21:54:25.150Z,101090.00
2022-11-24T21:56:54.675Z,101083.40
2022-11-24T21:59:23.457Z,101082.80
2022-11-24T22:01:52.523Z,101090.00
2022-11-24T22:04:21.748Z,101091.60
2022-11-24T22:06:53.492Z,101088.00
2022-11-24T22:09:22.285Z,101089.80
2022-11-24T22:11:52.810Z,101097.00
2022-11-24T22:14:21.913Z,101101.20
2022-11-24T22:16:50.509Z,101106.60
2022-11-24T22:19:20.057Z,101108.00
2022-11-24T22:21:48.900Z,101107.80
2022-11-24T22:24:19.030Z,101106.60
2022-11-24T22:26:50.055Z,101099.80
2022-11-24T22:29:18.741Z,101101.80
2022-11-24T22:31:47.654Z,101102.00
2022-11-24T22:34:16.726Z,101108.20
2022-11-24T22:36:45.592Z,101110.80
2022-11-24T22:39:14.311Z,101112.60
2022-11-24T22:41:42.793Z,101118.20
2022-11-24T22:44:11.615Z,101117.80
2022-11-24T22:46:40.374Z,101106.60
2022-11-24T22:49:10.156Z,101102.80
2022-11-24T22:51:39.789Z,101105.60
2022-11-24T22:54:13.869Z,101102.40
2022-11-24T22:56:42.488Z,101107.80
2022-11-24T22:59:11.378Z,101114.80
2022-11-24T23:01:40.169Z,101114.00
2022-11-24T23:04:09.349Z,101105.60
2022-11-24T23:06:38.570Z,101107.20
2022-11-24T23:09:08.027Z,101105.60
2022-11-24T23:11:41.264Z,101109.40
2022-11-24T23:14:15.700Z,101112.80
2022-11-24T23:16:44.730Z,101117.80
2022-11-24T23:19:13.573Z,101121.60
2022-11-24T23:21:42.711Z,101118.40
2022-11-24T23:24:12.076Z,101129.20
2022-11-24T23:26:41.900Z,101123.20
2022-11-24T23:29:11.594Z,101128.00
2022-11-24T23:31:40.467Z,101131.80
2022-11-24T23:34:09.482Z,101120.80
2022-11-24T23:36:38.678Z,101120.40
2022-11-24T23:39:12.729Z,101120.20
2022-11-24T23:41:41.892Z,101127.40
2022-11-24T23:44:10.576Z,101124.60
2022-11-24T23:46:39.367Z,101118.80
2022-11-24T23:49:08.051Z,101116.80
2022-11-24T23:51:36.943Z,101124.40
2022-11-24T23:54:27.449Z,101122.20
2022-11-24T23:56:56.130Z,101116.60
2022-11-24T23:59:24.814Z,101115.80
